Flight Track Log - Related Links

Times and Time Zones

All times are in EDT time to prevent confusion due to time zone crossing. See the TAM3701 flight status page for this flight to view local times or setup timezone preferences in your user account.

Time Position Orientation Groundspeed Altitude Reporting Facility
EDT Latitude Longitude Course Direction KTS MPH feet Rate Location/Type
Thu 08:22:12 AM -15.8600 -47.8740 84° East 150 173 5,100  Level FlightAware ADS-B
Thu 08:22:37 AM -15.8590 -47.8560 87° East 163 188 5,700 1,091 Climbing FlightAware ADS-B
Thu 08:23:07 AM -15.8570 -47.8310 85° East 166 191 6,100 436 Climbing FlightAware ADS-B
Thu 08:23:32 AM -15.8550 -47.8130 83° East 166 191 6,100 2,100 Level FlightAware ADS-B
Thu 08:24:27 AM -15.8860 -47.7720 128° Southeast 216 249 8,900 2,200 Climbing FlightAware ADS-B
Thu 08:25:02 AM -15.9260 -47.7800 191° South 245 282 9,400 840 Climbing FlightAware ADS-B
Thu 08:25:17 AM -15.9380 -47.7830 194° South 272 313 9,600 943 Climbing FlightAware ADS-B
Thu 08:26:12 AM -16.0120 -47.7950 189° South 294 338 10,500 1,958 Climbing FlightAware ADS-B
Thu 08:26:52 AM -16.0880 -47.8090 190° South 350 403 12,700 2,640 Climbing FlightAware ADS-B
Thu 08:27:27 AM -16.1450 -47.8190 190° South 365 420 13,800 1,950 Climbing FlightAware ADS-B
Thu 08:28:12 AM -16.2160 -47.8310 189° South 375 432 15,300 2,000 Climbing FlightAware ADS-B
Thu 08:29:42 AM -16.3720 -47.8590 190° South 385 443 18,300 1,875 Climbing FlightAware ADS-B
Thu 08:32:00 AM -16.5951 -47.8235 171° South  Level Estimated
Thu 08:32:12 AM -16.6410 -47.9060 171° South 396 456 22,800  Level FlightAware ADS-B
Thu 08:32:57 AM -16.7170 -47.9190 189° South 396 456 22,800 1,425 Level FlightAware ADS-B
Thu 08:33:32 AM -16.7900 -47.9310 189° South 407 468 24,700 1,425 Climbing FlightAware ADS-B
Thu 08:34:17 AM -16.8650 -47.9380 185° South 407 468 24,700  Level FlightAware ADS-B
Thu 08:34:57 AM -16.9290 -47.9430 184° South 407 468 24,700  Level FlightAware ADS-B
Thu 08:35:37 AM -16.9920 -47.9490 185° South 407 468 24,700  Level FlightAware ADS-B
Thu 08:36:17 AM -17.0560 -47.9550 185° South 407 468 24,700  Level FlightAware ADS-B
Thu 08:37:07 AM -17.1360 -47.9620 185° South 407 468 24,700 939 Level FlightAware ADS-B
Thu 08:39:00 AM -17.2975 -47.9308 170° South  Level Estimated
Thu 08:40:00 AM -17.3833 -47.9141 170° South  Level Estimated
Thu 08:41:00 AM -17.4691 -47.8975 170° South  Level Estimated
Thu 08:42:00 AM -17.5548 -47.8809 170° South  Level Estimated
Thu 08:43:00 AM -17.6406 -47.8642 170° South  Level Estimated
Thu 08:44:00 AM -17.7264 -47.8475 170° South  Level Estimated
Thu 08:45:00 AM -17.8122 -47.8308 170° South  Level Estimated
Thu 08:46:00 AM -17.8979 -47.8141 169° South  Level Estimated
Thu 08:47:00 AM -17.9837 -47.7974 169° South  Level Estimated
Thu 08:48:00 AM -18.0695 -47.7806 169° South  Level Estimated
Thu 08:49:00 AM -18.1552 -47.7639 169° South  Level Estimated
Thu 08:50:00 AM -18.2410 -47.7471 169° South  Level Estimated
Thu 08:50:27 AM -18.7700 -47.6670 169° South 419 482 38,000  Level FlightAware ADS-B
Thu 08:51:22 AM -18.8790 -47.6630 178° South 421 484 38,000  Level FlightAware ADS-B
Thu 08:52:02 AM -18.9550 -47.6640 181° South 421 484 38,000  Level FlightAware ADS-B
Thu 08:52:37 AM -19.0270 -47.6640 180° South 422 486 38,000  Level FlightAware ADS-B
Thu 08:53:17 AM -19.1040 -47.6640 180° South 422 486 38,000  Level FlightAware ADS-B
Thu 08:53:57 AM -19.1810 -47.6650 181° South 422 486 38,000  Level FlightAware ADS-B
Thu 08:54:42 AM -19.2650 -47.6650 180° South 422 486 38,000  Level FlightAware ADS-B
Thu 08:55:22 AM -19.3480 -47.6660 181° South 421 484 38,000  Level FlightAware ADS-B
Thu 08:56:02 AM -19.4260 -47.6660 180° South 420 483 38,000  Level FlightAware ADS-B
Thu 08:56:42 AM -19.5000 -47.6660 180° South 420 483 38,000  Level FlightAware ADS-B
Thu 08:57:27 AM -19.5920 -47.6670 181° South 422 486 38,000  Level FlightAware ADS-B
Thu 08:58:12 AM -19.6790 -47.6670 180° South 422 486 38,000  Level FlightAware ADS-B
Thu 08:58:42 AM -19.7370 -47.6670 180° South 422 486 38,000  Level FlightAware ADS-B
Thu 08:59:27 AM -19.8230 -47.6680 181° South 423 487 38,000  Level FlightAware ADS-B
Thu 09:00:32 AM -19.9490 -47.6680 180° South 423 487 38,000  Level FlightAware ADS-B
Thu 09:01:12 AM -20.0300 -47.6690 181° South 423 487 38,000  Level FlightAware ADS-B
Thu 09:01:47 AM -20.0970 -47.6690 180° South 423 487 38,000  Level FlightAware ADS-B
Thu 09:02:37 AM -20.1950 -47.6690 180° South 422 486 38,000  Level FlightAware ADS-B
Thu 09:03:37 AM -20.3100 -47.6700 180° South 422 486 38,000  Level FlightAware ADS-B
Thu 09:04:27 AM -20.4110 -47.6700 180° South 422 486 38,000  Level FlightAware ADS-B
Thu 09:05:17 AM -20.5080 -47.6710 181° South 421 484 38,000  Level FlightAware ADS-B
Thu 09:06:07 AM -20.6080 -47.6710 180° South 420 483 38,000  Level FlightAware ADS-B
Thu 09:06:52 AM -20.6950 -47.6720 181° South 420 483 38,000  Level FlightAware ADS-B
Thu 09:07:47 AM -20.7980 -47.6720 180° South 419 482 38,000  Level FlightAware ADS-B
Thu 09:08:37 AM -20.8980 -47.6730 181° South 420 483 38,000  Level FlightAware ADS-B
Thu 09:10:02 AM -21.0670 -47.6730 180° South 421 484 38,000  Level FlightAware ADS-B
Thu 09:10:42 AM -21.1450 -47.6740 181° South 421 484 38,000  Level FlightAware ADS-B
Thu 09:11:22 AM -21.2150 -47.6740 180° South 421 484 38,000  Level FlightAware ADS-B
Thu 09:12:27 AM -21.3510 -47.6750 180° South 422 486 38,000  Level FlightAware ADS-B
Thu 09:13:17 AM -21.4800 -47.6750 180° South 420 483 38,000  Level FlightAware ADS-B
Thu 09:14:02 AM -21.5670 -47.6760 181° South 419 482 38,000  Level FlightAware ADS-B
Thu 09:14:42 AM -21.6440 -47.6760 180° South 418 481 38,000  Level FlightAware ADS-B
Thu 09:15:22 AM -21.7240 -47.6760 180° South 419 482 38,000  Level FlightAware ADS-B
Thu 09:16:07 AM -21.8090 -47.6770 181° South 418 481 38,000  Level FlightAware ADS-B
Thu 09:16:47 AM -21.8850 -47.6770 180° South 418 481 38,000 -847 Level FlightAware ADS-B
Thu 09:17:32 AM -21.9750 -47.6780 181° South 427 491 36,800 -2,118 Descending FlightAware ADS-B
Thu 09:18:12 AM -22.0530 -47.6780 180° South 428 493 35,000 -2,753 Descending FlightAware ADS-B
Thu 09:18:57 AM -22.1450 -47.6780 180° South 433 498 32,900 -2,550 Descending FlightAware ADS-B
Thu 09:19:32 AM -22.2130 -47.6780 180° South 427 491 31,600 -2,259 Descending FlightAware ADS-B
Thu 09:20:22 AM -22.3130 -47.6790 181° South 418 481 29,700 -2,200 Descending FlightAware ADS-B
Thu 09:21:02 AM -22.3900 -47.6790 180° South 412 474 28,300 -2,100 Descending FlightAware ADS-B
Thu 09:21:42 AM -22.4660 -47.6790 180° South 405 466 26,900 -2,118 Descending FlightAware ADS-B
Thu 09:22:27 AM -22.5470 -47.6800 181° South 398 458 25,300 -2,250 Descending FlightAware ADS-B
Thu 09:23:02 AM -22.6110 -47.6690 171° South 393 452 23,900 -2,160 Descending FlightAware ADS-B
Thu 09:23:42 AM -22.6740 -47.6330 152° Southeast 383 441 22,600 -1,878 Descending FlightAware ADS-B
Thu 09:24:57 AM -22.7840 -47.5720 153° Southeast 364 419 20,300 -1,821 Descending FlightAware ADS-B
Thu 09:26:07 AM -22.8750 -47.4940 142° Southeast 347 399 18,200 -1,754 Descending FlightAware ADS-B
Thu 09:27:07 AM -22.9500 -47.4250 140° Southeast 341 392 16,500 -1,740 Descending FlightAware ADS-B
Thu 09:27:47 AM -23.0010 -47.3780 140° Southeast 342 394 15,300 -1,765 Descending FlightAware ADS-B
Thu 09:28:32 AM -23.0560 -47.3260 139° Southeast 339 390 14,000 -1,624 Descending FlightAware ADS-B
Thu 09:29:12 AM -23.0980 -47.2870 140° Southeast 326 375 13,000 -1,267 Descending FlightAware ADS-B
Thu 09:30:02 AM -23.1550 -47.2340 139° Southeast 314 361 12,100 -960 Descending FlightAware ADS-B
Thu 09:30:52 AM -23.2100 -47.1830 140° Southeast 299 344 11,400 -667 Descending FlightAware ADS-B
Thu 09:31:32 AM -23.2500 -47.1450 139° Southeast 297 342 11,100 -450 Descending FlightAware ADS-B
Thu 09:32:12 AM -23.2910 -47.1070 140° Southeast 295 339 10,800 -494 Descending FlightAware ADS-B
Thu 09:32:57 AM -23.3390 -47.0620 139° Southeast 295 339 10,400 -565 Descending FlightAware ADS-B
Thu 09:33:37 AM -23.3800 -47.0230 139° Southeast 296 341 10,000 -545 Descending FlightAware ADS-B
Thu 09:33:52 AM -23.3950 -47.0100 142° Southeast 294 338 9,900 -450 Descending FlightAware ADS-B
Thu 09:34:17 AM -23.4210 -46.9850 139° Southeast 294 338 9,700 -450 Descending FlightAware ADS-B
Thu 09:34:32 AM -23.4350 -46.9720 140° Southeast 294 338 9,600 -533 Descending FlightAware ADS-B
Thu 09:35:02 AM -23.4680 -46.9410 139° Southeast 294 338 9,300 -533 Descending FlightAware ADS-B
Thu 09:35:17 AM -23.4820 -46.9280 140° Southeast 294 338 9,200 -450 Descending FlightAware ADS-B
Thu 09:35:42 AM -23.5080 -46.9040 140° Southeast 292 336 9,000 -436 Descending FlightAware ADS-B
Thu 09:36:12 AM -23.5370 -46.8750 137° Southeast 290 334 8,800 -500 Descending FlightAware ADS-B
Thu 09:36:42 AM -23.5670 -46.8460 138° Southeast 282 325 8,500 -545 Descending FlightAware ADS-B
Thu 09:37:07 AM -23.5890 -46.8250 139° Southeast 286 329 8,300 -436 Descending FlightAware ADS-B
Thu 09:37:37 AM -23.6190 -46.7960 138° Southeast 287 330 8,100 -257 Descending FlightAware ADS-B
Thu 09:38:17 AM -23.6600 -46.7550 138° Southeast 290 334 8,000 -600 Descending FlightAware ADS-B
Thu 09:38:47 AM -23.6880 -46.7270 138° Southeast 286 329 7,400 -1,309 Descending FlightAware ADS-B
Thu 09:39:12 AM -23.7130 -46.7020 138° Southeast 281 323 6,800 -1,745 Descending FlightAware ADS-B
Thu 09:39:42 AM -23.7430 -46.6730 138° Southeast 284 327 5,800 -1,700 Descending FlightAware ADS-B
Thu 09:40:12 AM -23.7730 -46.6440 139° Southeast 272 313 5,100 -1,418 Descending FlightAware ADS-B
Thu 09:40:37 AM -23.7920 -46.6220 133° Southeast 259 298 4,500 -1,371 Descending FlightAware ADS-B
Thu 09:40:47 AM -23.7950 -46.6060 102° East 251 289 4,300 -400 Descending FlightAware ADS-B
Thu 09:41:07 AM -23.7840 -46.5800 65° Northeast 217 250 4,300  Level FlightAware ADS-B
Thu 09:41:17 AM -23.7760 -46.5750 30° Northeast 202 232 4,300  Level FlightAware ADS-B
Thu 09:41:32 AM -23.7620 -46.5720 11° North 194 223 4,300  Level FlightAware ADS-B
Thu 09:42:02 AM -23.7410 -46.5780 345° North 175 201 4,300  Level FlightAware ADS-B
Thu 09:42:27 AM -23.7250 -46.5890 328° Northwest 158 182 4,300 -109 Level FlightAware ADS-B
Thu 09:42:57 AM -23.7080 -46.6000 329° Northwest 140 161 4,200 -500 Descending FlightAware ADS-B
Thu 09:43:27 AM -23.6930 -46.6100 329° Northwest 135 155 3,800 -840 Descending FlightAware ADS-B
Thu 09:43:47 AM -23.6810 -46.6190 326° Northwest 140 161 3,500 -771 Descending FlightAware ADS-B
Thu 09:44:37 AM -23.6550 -46.6370 328° Northwest 142 163 2,900 -700 Descending FlightAware ADS-B
Thu 09:44:47 AM -23.6490 -46.6410 329° Northwest 139 160 2,800 -360 Descending FlightAware ADS-B
Thu 09:45:27 AM -23.6270 -46.6570 326° Northwest 143 165 2,600 -300 Descending FlightAware ADS-B
Thu 09:50:00 AM -23.6267 -46.6554 250° West  Level Estimated
Thu 09:51:00 AM -23.6267 -46.6554 114° Southeast  Level Estimated
Thu 09:52:00 AM -23.6267 -46.6554 114° Southeast  Level Estimated
Thu 09:53:00 AM -23.6267 -46.6554 114° Southeast  Level Estimated
Thu 09:54:00 AM -23.6267 -46.6554 114° Southeast  Level Estimated
Thu 09:55:00 AM -23.6267 -46.6554 114° Southeast  Level Estimated
Thu 09:56:00 AM -23.6267 -46.6554 114° Southeast  Level Estimated
Thu 09:57:00 AM -23.6267 -46.6554 114° Southeast  Level Estimated
Thu 09:58:00 AM -23.6267 -46.6554 114° Southeast  Level Estimated
Thu 09:59:00 AM -23.6267 -46.6554 114° Southeast  Level Estimated
Thu 10:00:00 AM -23.6267 -46.6554 114° Southeast  Level Estimated
Thu 10:01:00 AM -23.6267 -46.6554 114° Southeast  Level Estimated
Thu 10:02:00 AM -23.6267 -46.6554 114° Southeast  Level Estimated
Thu 10:03:00 AM -23.6267 -46.6554 114° Southeast  Level Estimated
Thu 10:04:00 AM -23.6267 -46.6554 114° Southeast  Level Estimated
Thu 10:05:00 AM -23.6267 -46.6554 114° Southeast  Level Estimated
Thu 10:06:00 AM -23.6267 -46.6554 114° Southeast  Level Estimated
Thu 10:07:00 AM -23.6267 -46.6554 114° Southeast  Level Estimated
Thu 10:08:00 AM -23.6267 -46.6554 114° Southeast  Level Estimated
Thu 10:09:00 AM -23.6267 -46.6554 114° Southeast  Level Estimated
Thu 10:10:00 AM -23.6267 -46.6554 114° Southeast  Level Estimated
Thu 10:11:00 AM -23.6267 -46.6554 114° Southeast  Level Estimated
Thu 10:12:00 AM -23.6267 -46.6554 114° Southeast  Level Estimated
Thu 10:13:00 AM -23.6267 -46.6554 114° Southeast  Level Estimated
Thu 10:14:00 AM -23.6267 -46.6554 114° Southeast  Level Estimated
Thu 10:15:00 AM -23.6267 -46.6554 114° Southeast  Level Estimated
Thu 10:16:00 AM -23.6267 -46.6554 114° Southeast  Level Estimated
Thu 10:17:00 AM -23.6267 -46.6554 114° Southeast  Level Estimated

Login

Don't have an account? Register now (free) for customized features, flight alerts, and more!